sensor_id;sensor_type;location;lat;lon;timestamp;temperature;humidity
43949;DHT22;29429;51.074;13.764;2022-08-21T00:00:49;18.50;99.90
43949;DHT22;29429;51.074;13.764;2022-08-21T00:03:16;18.50;99.90
43949;DHT22;29429;51.074;13.764;2022-08-21T00:05:47;18.50;99.90
43949;DHT22;29429;51.074;13.764;2022-08-21T00:08:18;18.40;99.90
43949;DHT22;29429;51.074;13.764;2022-08-21T00:10:46;18.50;99.90
43949;DHT22;29429;51.074;13.764;2022-08-21T00:13:16;18.40;99.90
43949;DHT22;29429;51.074;13.764;2022-08-21T00:15:44;18.50;99.90
43949;DHT22;29429;51.074;13.764;2022-08-21T00:18:13;18.50;99.90
43949;DHT22;29429;51.074;13.764;2022-08-21T00:20:42;18.50;99.90
43949;DHT22;29429;51.074;13.764;2022-08-21T00:23:10;18.50;99.90
43949;DHT22;29429;51.074;13.764;2022-08-21T00:25:39;18.50;99.90
43949;DHT22;29429;51.074;13.764;2022-08-21T00:28:07;18.50;99.90
43949;DHT22;29429;51.074;13.764;2022-08-21T00:30:35;18.50;99.90
43949;DHT22;29429;51.074;13.764;2022-08-21T00:33:03;18.50;99.90
43949;DHT22;29429;51.074;13.764;2022-08-21T00:35:34;18.50;99.90
43949;DHT22;29429;51.074;13.764;2022-08-21T00:38:05;18.50;99.90
43949;DHT22;29429;51.074;13.764;2022-08-21T00:40:50;18.50;99.90
43949;DHT22;29429;51.074;13.764;2022-08-21T00:43:23;18.50;99.90
43949;DHT22;29429;51.074;13.764;2022-08-21T00:45:57;18.50;99.90
43949;DHT22;29429;51.074;13.764;2022-08-21T00:48:25;18.50;99.90
43949;DHT22;29429;51.074;13.764;2022-08-21T00:51:08;18.50;99.90
43949;DHT22;29429;51.074;13.764;2022-08-21T00:53:43;18.50;99.90
43949;DHT22;29429;51.074;13.764;2022-08-21T00:56:20;18.50;99.90
43949;DHT22;29429;51.074;13.764;2022-08-21T00:58:53;18.50;99.90
43949;DHT22;29429;51.074;13.764;2022-08-21T01:01:22;18.50;99.90
43949;DHT22;29429;51.074;13.764;2022-08-21T01:03:49;18.50;99.90
43949;DHT22;29429;51.074;13.764;2022-08-21T01:06:17;18.30;99.90
43949;DHT22;29429;51.074;13.764;2022-08-21T01:08:44;18.50;99.90
43949;DHT22;29429;51.074;13.764;2022-08-21T01:11:14;18.50;99.90
43949;DHT22;29429;51.074;13.764;2022-08-21T01:13:42;18.50;99.90
43949;DHT22;29429;51.074;13.764;2022-08-21T01:16:15;18.50;99.90
43949;DHT22;29429;51.074;13.764;2022-08-21T01:18:45;18.50;99.90
43949;DHT22;29429;51.074;13.764;2022-08-21T01:21:23;18.50;99.90
43949;DHT22;29429;51.074;13.764;2022-08-21T01:23:55;18.40;99.90
43949;DHT22;29429;51.074;13.764;2022-08-21T01:26:26;18.30;99.90
43949;DHT22;29429;51.074;13.764;2022-08-21T01:32:02;18.20;99.90
43949;DHT22;29429;51.074;13.764;2022-08-21T01:34:32;18.10;99.90
43949;DHT22;29429;51.074;13.764;2022-08-21T01:37:02;17.80;99.90
43949;DHT22;29429;51.074;13.764;2022-08-21T01:39:29;17.90;99.90
43949;DHT22;29429;51.074;13.764;2022-08-21T01:41:56;18.00;99.90
43949;DHT22;29429;51.074;13.764;2022-08-21T01:44:24;17.90;99.90
43949;DHT22;29429;51.074;13.764;2022-08-21T01:46:52;17.80;99.90
43949;DHT22;29429;51.074;13.764;2022-08-21T01:49:19;17.80;99.90
43949;DHT22;29429;51.074;13.764;2022-08-21T01:51:46;17.70;99.90
43949;DHT22;29429;51.074;13.764;2022-08-21T01:54:13;17.80;99.90
43949;DHT22;29429;51.074;13.764;2022-08-21T01:56:43;17.70;99.90
43949;DHT22;29429;51.074;13.764;2022-08-21T01:59:13;17.80;99.90
43949;DHT22;29429;51.074;13.764;2022-08-21T02:01:40;17.80;99.90
43949;DHT22;29429;51.074;13.764;2022-08-21T02:04:08;17.90;99.90
43949;DHT22;29429;51.074;13.764;2022-08-21T02:06:37;17.80;99.90
43949;DHT22;29429;51.074;13.764;2022-08-21T02:09:07;17.70;99.90
43949;DHT22;29429;51.074;13.764;2022-08-21T02:11:36;17.90;99.90
43949;DHT22;29429;51.074;13.764;2022-08-21T02:14:11;17.80;99.90
43949;DHT22;29429;51.074;13.764;2022-08-21T02:16:42;17.90;99.90
43949;DHT22;29429;51.074;13.764;2022-08-21T02:19:12;17.90;99.90
43949;DHT22;29429;51.074;13.764;2022-08-21T02:21:41;18.00;99.90
43949;DHT22;29429;51.074;13.764;2022-08-21T02:24:10;17.90;99.90
43949;DHT22;29429;51.074;13.764;2022-08-21T02:26:38;17.90;99.90
43949;DHT22;29429;51.074;13.764;2022-08-21T02:29:05;17.90;99.90
43949;DHT22;29429;51.074;13.764;2022-08-21T02:31:32;17.90;99.90
43949;DHT22;29429;51.074;13.764;2022-08-21T02:33:59;17.90;99.90
43949;DHT22;29429;51.074;13.764;2022-08-21T02:36:27;17.90;99.90
43949;DHT22;29429;51.074;13.764;2022-08-21T02:38:54;17.90;99.90
43949;DHT22;29429;51.074;13.764;2022-08-21T02:41:22;17.80;99.90
43949;DHT22;29429;51.074;13.764;2022-08-21T02:43:50;17.80;99.90
43949;DHT22;29429;51.074;13.764;2022-08-21T02:46:19;17.80;99.90
43949;DHT22;29429;51.074;13.764;2022-08-21T02:48:47;17.80;99.90
43949;DHT22;29429;51.074;13.764;2022-08-21T02:51:17;17.70;99.90
43949;DHT22;29429;51.074;13.764;2022-08-21T02:53:47;17.80;99.90
43949;DHT22;29429;51.074;13.764;2022-08-21T02:56:16;17.70;99.90
43949;DHT22;29429;51.074;13.764;2022-08-21T02:58:47;17.70;99.90
43949;DHT22;29429;51.074;13.764;2022-08-21T03:01:18;17.80;99.90
43949;DHT22;29429;51.074;13.764;2022-08-21T03:03:47;17.80;99.90
43949;DHT22;29429;51.074;13.764;2022-08-21T03:06:21;17.80;99.90
43949;DHT22;29429;51.074;13.764;2022-08-21T03:08:49;17.90;99.90
43949;DHT22;29429;51.074;13.764;2022-08-21T03:11:17;17.90;99.90
43949;DHT22;29429;51.074;13.764;2022-08-21T03:13:46;17.90;99.90
43949;DHT22;29429;51.074;13.764;2022-08-21T03:16:13;17.90;99.90
43949;DHT22;29429;51.074;13.764;2022-08-21T03:18:41;17.90;99.90
43949;DHT22;29429;51.074;13.764;2022-08-21T03:21:08;18.00;99.90
43949;DHT22;29429;51.074;13.764;2022-08-21T03:23:35;18.00;99.90
43949;DHT22;29429;51.074;13.764;2022-08-21T03:26:03;18.00;99.90
43949;DHT22;29429;51.074;13.764;2022-08-21T03:28:30;18.00;99.90
43949;DHT22;29429;51.074;13.764;2022-08-21T03:30:57;18.00;99.90
43949;DHT22;29429;51.074;13.764;2022-08-21T03:33:24;18.00;99.90
43949;DHT22;29429;51.074;13.764;2022-08-21T03:36:00;17.90;99.90
43949;DHT22;29429;51.074;13.764;2022-08-21T03:38:33;17.90;99.90
43949;DHT22;29429;51.074;13.764;2022-08-21T03:41:02;17.90;99.90
43949;DHT22;29429;51.074;13.764;2022-08-21T03:43:31;17.90;99.90
43949;DHT22;29429;51.074;13.764;2022-08-21T03:46:03;17.90;99.90
43949;DHT22;29429;51.074;13.764;2022-08-21T03:48:33;17.90;99.90
43949;DHT22;29429;51.074;13.764;2022-08-21T03:51:02;17.80;99.90
43949;DHT22;29429;51.074;13.764;2022-08-21T03:53:29;18.00;99.90
43949;DHT22;29429;51.074;13.764;2022-08-21T03:55:56;17.90;99.90
43949;DHT22;29429;51.074;13.764;2022-08-21T03:58:25;18.00;99.90
43949;DHT22;29429;51.074;13.764;2022-08-21T04:00:56;17.90;99.90
43949;DHT22;29429;51.074;13.764;2022-08-21T04:03:25;17.80;99.90
43949;DHT22;29429;51.074;13.764;2022-08-21T04:05:53;17.80;99.90
43949;DHT22;29429;51.074;13.764;2022-08-21T04:08:20;17.80;99.90
43949;DHT22;29429;51.074;13.764;2022-08-21T04:10:50;17.80;99.90
43949;DHT22;29429;51.074;13.764;2022-08-21T04:13:19;17.70;99.90
43949;DHT22;29429;51.074;13.764;2022-08-21T04:15:47;17.70;99.90
43949;DHT22;29429;51.074;13.764;2022-08-21T04:18:14;17.70;99.90
43949;DHT22;29429;51.074;13.764;2022-08-21T04:20:43;17.80;99.90
43949;DHT22;29429;51.074;13.764;2022-08-21T04:23:17;17.70;99.90
43949;DHT22;29429;51.074;13.764;2022-08-21T04:25:54;17.70;99.90
43949;DHT22;29429;51.074;13.764;2022-08-21T04:28:23;17.70;99.90
43949;DHT22;29429;51.074;13.764;2022-08-21T04:30:55;17.70;99.90
43949;DHT22;29429;51.074;13.764;2022-08-21T04:33:22;17.70;99.90
43949;DHT22;29429;51.074;13.764;2022-08-21T04:35:49;17.70;99.90
43949;DHT22;29429;51.074;13.764;2022-08-21T04:38:17;17.60;99.90
43949;DHT22;29429;51.074;13.764;2022-08-21T04:40:45;17.70;99.90
43949;DHT22;29429;51.074;13.764;2022-08-21T04:43:12;17.80;99.90
43949;DHT22;29429;51.074;13.764;2022-08-21T04:45:45;17.80;99.90
43949;DHT22;29429;51.074;13.764;2022-08-21T04:48:16;17.80;99.90
43949;DHT22;29429;51.074;13.764;2022-08-21T04:51:00;17.80;99.90
43949;DHT22;29429;51.074;13.764;2022-08-21T04:53:36;17.80;99.90
43949;DHT22;29429;51.074;13.764;2022-08-21T04:56:10;17.80;99.90
43949;DHT22;29429;51.074;13.764;2022-08-21T04:58:39;18.00;99.90
43949;DHT22;29429;51.074;13.764;2022-08-21T05:01:12;17.80;99.90
43949;DHT22;29429;51.074;13.764;2022-08-21T05:03:44;17.80;99.90
43949;DHT22;29429;51.074;13.764;2022-08-21T05:06:14;18.00;99.90
43949;DHT22;29429;51.074;13.764;2022-08-21T05:08:44;18.10;99.90
43949;DHT22;29429;51.074;13.764;2022-08-21T05:11:13;18.10;99.90
43949;DHT22;29429;51.074;13.764;2022-08-21T05:13:41;18.20;99.90
43949;DHT22;29429;51.074;13.764;2022-08-21T05:16:08;18.40;99.90
43949;DHT22;29429;51.074;13.764;2022-08-21T05:18:35;18.20;99.90
43949;DHT22;29429;51.074;13.764;2022-08-21T05:21:03;18.30;99.90
43949;DHT22;29429;51.074;13.764;2022-08-21T05:23:30;18.30;99.90
43949;DHT22;29429;51.074;13.764;2022-08-21T05:25:57;18.40;99.90
43949;DHT22;29429;51.074;13.764;2022-08-21T05:28:25;18.40;99.90
43949;DHT22;29429;51.074;13.764;2022-08-21T05:30:53;18.50;99.90
43949;DHT22;29429;51.074;13.764;2022-08-21T05:33:20;18.50;99.90
43949;DHT22;29429;51.074;13.764;2022-08-21T05:35:50;18.60;99.90
43949;DHT22;29429;51.074;13.764;2022-08-21T05:38:18;18.70;99.90
43949;DHT22;29429;51.074;13.764;2022-08-21T05:40:46;18.70;99.90
43949;DHT22;29429;51.074;13.764;2022-08-21T05:43:14;18.80;99.90
43949;DHT22;29429;51.074;13.764;2022-08-21T05:45:42;18.80;99.90
43949;DHT22;29429;51.074;13.764;2022-08-21T05:48:16;19.00;99.90
43949;DHT22;29429;51.074;13.764;2022-08-21T05:50:47;18.70;99.90
43949;DHT22;29429;51.074;13.764;2022-08-21T05:53:17;18.70;99.90
43949;DHT22;29429;51.074;13.764;2022-08-21T05:55:46;18.70;99.90
43949;DHT22;29429;51.074;13.764;2022-08-21T05:58:16;18.60;99.90
43949;DHT22;29429;51.074;13.764;2022-08-21T06:00:47;18.60;99.90
43949;DHT22;29429;51.074;13.764;2022-08-21T06:03:23;18.60;99.90
43949;DHT22;29429;51.074;13.764;2022-08-21T06:05:53;18.70;99.90
43949;DHT22;29429;51.074;13.764;2022-08-21T06:08:22;18.80;99.90
43949;DHT22;29429;51.074;13.764;2022-08-21T06:10:51;18.80;99.90
43949;DHT22;29429;51.074;13.764;2022-08-21T06:13:21;18.90;99.90
43949;DHT22;29429;51.074;13.764;2022-08-21T06:15:49;18.90;99.90
43949;DHT22;29429;51.074;13.764;2022-08-21T06:18:26;19.00;99.90
43949;DHT22;29429;51.074;13.764;2022-08-21T06:20:53;19.00;99.90
43949;DHT22;29429;51.074;13.764;2022-08-21T06:23:20;19.10;99.90
43949;DHT22;29429;51.074;13.764;2022-08-21T06:25:58;19.10;99.90
43949;DHT22;29429;51.074;13.764;2022-08-21T06:28:27;19.10;99.90
43949;DHT22;29429;51.074;13.764;2022-08-21T06:30:54;19.10;99.90
43949;DHT22;29429;51.074;13.764;2022-08-21T06:33:21;19.20;99.90
43949;DHT22;29429;51.074;13.764;2022-08-21T06:35:48;19.20;99.90
43949;DHT22;29429;51.074;13.764;2022-08-21T06:38:15;19.30;99.90
43949;DHT22;29429;51.074;13.764;2022-08-21T06:40:42;19.30;99.90
43949;DHT22;29429;51.074;13.764;2022-08-21T06:43:16;19.30;99.90
43949;DHT22;29429;51.074;13.764;2022-08-21T06:45:44;19.30;99.90
43949;DHT22;29429;51.074;13.764;2022-08-21T06:48:11;19.30;99.90
43949;DHT22;29429;51.074;13.764;2022-08-21T06:50:45;19.40;99.90
43949;DHT22;29429;51.074;13.764;2022-08-21T06:53:15;19.60;99.90
43949;DHT22;29429;51.074;13.764;2022-08-21T06:55:45;19.60;99.90
43949;DHT22;29429;51.074;13.764;2022-08-21T06:58:13;19.50;99.90
43949;DHT22;29429;51.074;13.764;2022-08-21T07:00:42;19.70;99.90
43949;DHT22;29429;51.074;13.764;2022-08-21T07:03:38;19.70;99.90
43949;DHT22;29429;51.074;13.764;2022-08-21T07:06:07;19.90;99.90
43949;DHT22;29429;51.074;13.764;2022-08-21T07:08:37;20.00;99.90
43949;DHT22;29429;51.074;13.764;2022-08-21T07:11:11;20.10;99.90
43949;DHT22;29429;51.074;13.764;2022-08-21T07:13:43;20.00;99.90
43949;DHT22;29429;51.074;13.764;2022-08-21T07:16:10;19.90;99.90
43949;DHT22;29429;51.074;13.764;2022-08-21T07:18:38;19.90;99.90
43949;DHT22;29429;51.074;13.764;2022-08-21T07:21:06;19.90;99.90
43949;DHT22;29429;51.074;13.764;2022-08-21T07:23:38;19.90;99.90
43949;DHT22;29429;51.074;13.764;2022-08-21T07:26:09;19.80;99.90
43949;DHT22;29429;51.074;13.764;2022-08-21T07:28:36;20.00;99.90
43949;DHT22;29429;51.074;13.764;2022-08-21T07:31:04;20.10;99.90
43949;DHT22;29429;51.074;13.764;2022-08-21T07:33:33;20.20;99.90
43949;DHT22;29429;51.074;13.764;2022-08-21T07:36:01;20.20;99.90
43949;DHT22;29429;51.074;13.764;2022-08-21T07:38:28;20.30;99.90
43949;DHT22;29429;51.074;13.764;2022-08-21T07:40:56;20.30;99.90
43949;DHT22;29429;51.074;13.764;2022-08-21T07:43:25;20.40;99.90
43949;DHT22;29429;51.074;13.764;2022-08-21T07:45:53;20.40;99.90
43949;DHT22;29429;51.074;13.764;2022-08-21T07:48:24;20.50;99.90
43949;DHT22;29429;51.074;13.764;2022-08-21T07:50:51;20.60;99.90
43949;DHT22;29429;51.074;13.764;2022-08-21T07:53:17;20.60;99.90
43949;DHT22;29429;51.074;13.764;2022-08-21T07:55:44;20.60;99.90
43949;DHT22;29429;51.074;13.764;2022-08-21T07:58:11;20.60;99.90
43949;DHT22;29429;51.074;13.764;2022-08-21T08:00:39;20.50;99.90
43949;DHT22;29429;51.074;13.764;2022-08-21T08:03:06;20.40;99.90
43949;DHT22;29429;51.074;13.764;2022-08-21T08:05:33;20.40;99.90
43949;DHT22;29429;51.074;13.764;2022-08-21T08:08:03;20.50;99.90
43949;DHT22;29429;51.074;13.764;2022-08-21T08:10:30;20.40;99.90
43949;DHT22;29429;51.074;13.764;2022-08-21T08:12:57;20.50;99.90
43949;DHT22;29429;51.074;13.764;2022-08-21T08:15:25;20.60;99.90
43949;DHT22;29429;51.074;13.764;2022-08-21T08:17:55;20.70;99.90
43949;DHT22;29429;51.074;13.764;2022-08-21T08:20:24;20.90;99.90
43949;DHT22;29429;51.074;13.764;2022-08-21T08:22:53;20.80;99.90
43949;DHT22;29429;51.074;13.764;2022-08-21T08:25:22;21.00;99.90
43949;DHT22;29429;51.074;13.764;2022-08-21T08:27:50;21.00;99.90
43949;DHT22;29429;51.074;13.764;2022-08-21T08:30:18;21.20;99.90
43949;DHT22;29429;51.074;13.764;2022-08-21T08:32:48;21.30;99.90
43949;DHT22;29429;51.074;13.764;2022-08-21T08:35:16;21.50;99.90
43949;DHT22;29429;51.074;13.764;2022-08-21T08:37:47;21.60;99.90
43949;DHT22;29429;51.074;13.764;2022-08-21T08:43:09;21.80;99.90
43949;DHT22;29429;51.074;13.764;2022-08-21T08:45:44;21.90;99.90
43949;DHT22;29429;51.074;13.764;2022-08-21T08:48:26;21.90;99.90
43949;DHT22;29429;51.074;13.764;2022-08-21T08:51:03;21.90;99.90
43949;DHT22;29429;51.074;13.764;2022-08-21T08:53:51;21.90;99.90
43949;DHT22;29429;51.074;13.764;2022-08-21T08:56:29;21.80;99.90
43949;DHT22;29429;51.074;13.764;2022-08-21T09:01:45;21.70;99.90
43949;DHT22;29429;51.074;13.764;2022-08-21T09:04:21;21.50;99.90
43949;DHT22;29429;51.074;13.764;2022-08-21T09:13:21;21.80;99.90
43949;DHT22;29429;51.074;13.764;2022-08-21T09:16:00;21.80;99.90
43949;DHT22;29429;51.074;13.764;2022-08-21T09:18:53;21.80;99.90
43949;DHT22;29429;51.074;13.764;2022-08-21T09:27:48;21.80;99.90
43949;DHT22;29429;51.074;13.764;2022-08-21T09:30:18;21.70;99.90
43949;DHT22;29429;51.074;13.764;2022-08-21T09:32:49;21.80;99.90
43949;DHT22;29429;51.074;13.764;2022-08-21T09:35:19;21.70;99.90
43949;DHT22;29429;51.074;13.764;2022-08-21T09:37:53;21.70;99.90
43949;DHT22;29429;51.074;13.764;2022-08-21T09:45:40;21.80;99.90
43949;DHT22;29429;51.074;13.764;2022-08-21T09:48:28;21.70;99.90
43949;DHT22;29429;51.074;13.764;2022-08-21T09:51:11;21.80;99.90
43949;DHT22;29429;51.074;13.764;2022-08-21T09:53:46;21.90;99.90
43949;DHT22;29429;51.074;13.764;2022-08-21T09:59:34;22.10;99.90
43949;DHT22;29429;51.074;13.764;2022-08-21T10:02:35;22.00;99.90
43949;DHT22;29429;51.074;13.764;2022-08-21T10:07:43;22.00;99.90
43949;DHT22;29429;51.074;13.764;2022-08-21T10:10:30;22.00;99.90
43949;DHT22;29429;51.074;13.764;2022-08-21T10:13:10;22.00;99.90
43949;DHT22;29429;51.074;13.764;2022-08-21T10:18:26;22.10;99.90
43949;DHT22;29429;51.074;13.764;2022-08-21T10:30:08;22.00;99.90
43949;DHT22;29429;51.074;13.764;2022-08-21T10:33:14;22.00;99.90
43949;DHT22;29429;51.074;13.764;2022-08-21T10:38:59;22.10;99.90
43949;DHT22;29429;51.074;13.764;2022-08-21T10:47:51;22.30;99.20
43949;DHT22;29429;51.074;13.764;2022-08-21T10:50:48;22.30;99.60
43949;DHT22;29429;51.074;13.764;2022-08-21T10:53:36;22.30;99.60
43949;DHT22;29429;51.074;13.764;2022-08-21T10:59:43;22.50;99.90
43949;DHT22;29429;51.074;13.764;2022-08-21T11:02:25;22.70;99.90
43949;DHT22;29429;51.074;13.764;2022-08-21T11:05:38;22.70;99.60
43949;DHT22;29429;51.074;13.764;2022-08-21T11:08:26;22.80;99.60
43949;DHT22;29429;51.074;13.764;2022-08-21T11:11:14;22.90;98.10
43949;DHT22;29429;51.074;13.764;2022-08-21T11:14:07;22.90;98.40
43949;DHT22;29429;51.074;13.764;2022-08-21T11:16:44;22.90;99.50
43949;DHT22;29429;51.074;13.764;2022-08-21T11:19:34;23.10;98.70
43949;DHT22;29429;51.074;13.764;2022-08-21T11:25:26;23.20;94.70
43949;DHT22;29429;51.074;13.764;2022-08-21T11:28:17;23.20;95.10
43949;DHT22;29429;51.074;13.764;2022-08-21T11:31:08;23.20;93.30
43949;DHT22;29429;51.074;13.764;2022-08-21T11:36:47;23.20;93.90
43949;DHT22;29429;51.074;13.764;2022-08-21T11:42:41;23.50;93.90
43949;DHT22;29429;51.074;13.764;2022-08-21T11:51:12;23.70;92.70
43949;DHT22;29429;51.074;13.764;2022-08-21T11:54:17;23.80;91.80
43949;DHT22;29429;51.074;13.764;2022-08-21T11:57:17;23.80;91.20
43949;DHT22;29429;51.074;13.764;2022-08-21T12:00:05;23.60;90.40
43949;DHT22;29429;51.074;13.764;2022-08-21T12:02:47;23.60;91.10
43949;DHT22;29429;51.074;13.764;2022-08-21T12:05:52;23.60;90.00
43949;DHT22;29429;51.074;13.764;2022-08-21T12:08:32;23.70;89.40
43949;DHT22;29429;51.074;13.764;2022-08-21T12:13:54;23.90;86.40
43949;DHT22;29429;51.074;13.764;2022-08-21T12:16:35;23.70;87.00
43949;DHT22;29429;51.074;13.764;2022-08-21T12:27:12;23.90;82.40
43949;DHT22;29429;51.074;13.764;2022-08-21T12:29:46;23.80;83.00
43949;DHT22;29429;51.074;13.764;2022-08-21T12:32:21;23.40;79.30
43949;DHT22;29429;51.074;13.764;2022-08-21T12:41:04;23.40;81.00
43949;DHT22;29429;51.074;13.764;2022-08-21T12:43:45;23.30;81.30
43949;DHT22;29429;51.074;13.764;2022-08-21T12:46:18;23.10;82.70
43949;DHT22;29429;51.074;13.764;2022-08-21T12:49:13;23.10;81.10
43949;DHT22;29429;51.074;13.764;2022-08-21T12:51:52;23.00;79.20
43949;DHT22;29429;51.074;13.764;2022-08-21T12:54:26;23.00;81.90
43949;DHT22;29429;51.074;13.764;2022-08-21T12:57:04;23.00;82.40
43949;DHT22;29429;51.074;13.764;2022-08-21T12:59:36;23.00;81.00
43949;DHT22;29429;51.074;13.764;2022-08-21T13:02:18;22.90;82.30
43949;DHT22;29429;51.074;13.764;2022-08-21T13:04:48;22.90;79.80
43949;DHT22;29429;51.074;13.764;2022-08-21T13:07:24;23.00;77.60
43949;DHT22;29429;51.074;13.764;2022-08-21T13:10:04;22.80;78.70
43949;DHT22;29429;51.074;13.764;2022-08-21T13:12:43;22.80;77.10
43949;DHT22;29429;51.074;13.764;2022-08-21T13:15:11;22.70;78.70
43949;DHT22;29429;51.074;13.764;2022-08-21T13:17:44;22.80;78.90
43949;DHT22;29429;51.074;13.764;2022-08-21T13:20:19;22.80;83.50
43949;DHT22;29429;51.074;13.764;2022-08-21T13:22:51;23.00;79.20
43949;DHT22;29429;51.074;13.764;2022-08-21T13:25:21;23.10;80.30
43949;DHT22;29429;51.074;13.764;2022-08-21T13:28:01;23.20;81.10
43949;DHT22;29429;51.074;13.764;2022-08-21T13:30:33;23.30;82.00
43949;DHT22;29429;51.074;13.764;2022-08-21T13:33:02;23.40;85.10
43949;DHT22;29429;51.074;13.764;2022-08-21T13:36:01;23.40;81.00
43949;DHT22;29429;51.074;13.764;2022-08-21T13:38:40;23.40;78.10
43949;DHT22;29429;51.074;13.764;2022-08-21T13:41:25;23.40;77.70
43949;DHT22;29429;51.074;13.764;2022-08-21T13:46:34;23.10;78.90
43949;DHT22;29429;51.074;13.764;2022-08-21T13:49:05;23.10;78.80
43949;DHT22;29429;51.074;13.764;2022-08-21T13:51:35;23.10;78.80
43949;DHT22;29429;51.074;13.764;2022-08-21T13:54:22;23.10;78.20
43949;DHT22;29429;51.074;13.764;2022-08-21T13:56:54;23.10;76.60
43949;DHT22;29429;51.074;13.764;2022-08-21T13:59:39;23.00;75.70
43949;DHT22;29429;51.074;13.764;2022-08-21T14:02:22;23.00;75.40
43949;DHT22;29429;51.074;13.764;2022-08-21T14:05:14;23.00;77.90
43949;DHT22;29429;51.074;13.764;2022-08-21T14:07:44;23.10;79.20
43949;DHT22;29429;51.074;13.764;2022-08-21T14:10:18;23.20;76.60
43949;DHT22;29429;51.074;13.764;2022-08-21T14:12:54;23.20;78.50
43949;DHT22;29429;51.074;13.764;2022-08-21T14:15:26;23.20;77.20
43949;DHT22;29429;51.074;13.764;2022-08-21T14:18:14;23.10;78.00
43949;DHT22;29429;51.074;13.764;2022-08-21T14:20:44;23.00;80.40
43949;DHT22;29429;51.074;13.764;2022-08-21T14:23:23;23.10;80.70
43949;DHT22;29429;51.074;13.764;2022-08-21T14:25:52;23.10;79.20
43949;DHT22;29429;51.074;13.764;2022-08-21T14:28:23;23.10;81.40
43949;DHT22;29429;51.074;13.764;2022-08-21T14:30:54;23.20;80.60
43949;DHT22;29429;51.074;13.764;2022-08-21T14:33:26;23.20;77.70
43949;DHT22;29429;51.074;13.764;2022-08-21T14:35:55;23.20;77.00
43949;DHT22;29429;51.074;13.764;2022-08-21T14:38:26;23.20;76.00
43949;DHT22;29429;51.074;13.764;2022-08-21T14:41:00;23.10;77.20
43949;DHT22;29429;51.074;13.764;2022-08-21T14:43:34;23.10;78.60
43949;DHT22;29429;51.074;13.764;2022-08-21T14:46:01;23.10;78.00
43949;DHT22;29429;51.074;13.764;2022-08-21T14:48:28;23.10;78.70
43949;DHT22;29429;51.074;13.764;2022-08-21T14:50:55;23.20;79.50
43949;DHT22;29429;51.074;13.764;2022-08-21T14:53:34;23.10;80.60
43949;DHT22;29429;51.074;13.764;2022-08-21T14:56:01;23.10;79.60
43949;DHT22;29429;51.074;13.764;2022-08-21T14:58:33;23.10;75.50
43949;DHT22;29429;51.074;13.764;2022-08-21T15:01:06;23.20;77.10
43949;DHT22;29429;51.074;13.764;2022-08-21T15:03:35;23.10;77.20
43949;DHT22;29429;51.074;13.764;2022-08-21T15:06:04;23.20;77.10
43949;DHT22;29429;51.074;13.764;2022-08-21T15:08:32;23.20;77.40
43949;DHT22;29429;51.074;13.764;2022-08-21T15:11:01;23.20;74.90
43949;DHT22;29429;51.074;13.764;2022-08-21T15:13:41;23.30;75.70
43949;DHT22;29429;51.074;13.764;2022-08-21T15:16:10;23.30;75.70
43949;DHT22;29429;51.074;13.764;2022-08-21T15:18:38;23.30;76.20
43949;DHT22;29429;51.074;13.764;2022-08-21T15:21:05;23.40;74.70
43949;DHT22;29429;51.074;13.764;2022-08-21T15:23:32;23.40;74.20
43949;DHT22;29429;51.074;13.764;2022-08-21T15:25:59;23.30;73.20
43949;DHT22;29429;51.074;13.764;2022-08-21T15:28:28;23.30;72.90
43949;DHT22;29429;51.074;13.764;2022-08-21T15:30:59;23.30;71.90
43949;DHT22;29429;51.074;13.764;2022-08-21T15:33:27;23.40;72.10
43949;DHT22;29429;51.074;13.764;2022-08-21T15:35:55;23.40;72.00
43949;DHT22;29429;51.074;13.764;2022-08-21T15:38:22;23.50;70.80
43949;DHT22;29429;51.074;13.764;2022-08-21T15:40:49;23.30;71.20
43949;DHT22;29429;51.074;13.764;2022-08-21T15:43:27;23.30;71.40
43949;DHT22;29429;51.074;13.764;2022-08-21T15:45:58;23.30;72.80
43949;DHT22;29429;51.074;13.764;2022-08-21T15:48:27;23.30;71.20
43949;DHT22;29429;51.074;13.764;2022-08-21T15:50:54;23.30;72.30
43949;DHT22;29429;51.074;13.764;2022-08-21T15:53:21;23.30;72.80
43949;DHT22;29429;51.074;13.764;2022-08-21T15:55:48;23.40;73.60
43949;DHT22;29429;51.074;13.764;2022-08-21T15:58:16;23.30;72.10
43949;DHT22;29429;51.074;13.764;2022-08-21T16:00:46;23.30;71.60
43949;DHT22;29429;51.074;13.764;2022-08-21T16:03:16;23.30;73.00
43949;DHT22;29429;51.074;13.764;2022-08-21T16:05:46;23.20;71.80
43949;DHT22;29429;51.074;13.764;2022-08-21T16:08:20;23.10;73.60
43949;DHT22;29429;51.074;13.764;2022-08-21T16:10:47;23.00;72.40
43949;DHT22;29429;51.074;13.764;2022-08-21T16:13:28;23.00;73.30
43949;DHT22;29429;51.074;13.764;2022-08-21T16:16:00;22.90;73.40
43949;DHT22;29429;51.074;13.764;2022-08-21T16:18:28;22.80;73.00
43949;DHT22;29429;51.074;13.764;2022-08-21T16:20:55;22.70;74.20
43949;DHT22;29429;51.074;13.764;2022-08-21T16:23:21;22.40;74.30
43949;DHT22;29429;51.074;13.764;2022-08-21T16:25:49;22.30;75.20
43949;DHT22;29429;51.074;13.764;2022-08-21T16:28:18;22.30;77.10
43949;DHT22;29429;51.074;13.764;2022-08-21T16:30:48;22.10;76.20
43949;DHT22;29429;51.074;13.764;2022-08-21T16:33:40;22.00;77.80
43949;DHT22;29429;51.074;13.764;2022-08-21T16:36:11;21.90;78.20
43949;DHT22;29429;51.074;13.764;2022-08-21T16:38:39;21.70;78.80
43949;DHT22;29429;51.074;13.764;2022-08-21T16:41:10;21.60;79.10
43949;DHT22;29429;51.074;13.764;2022-08-21T16:43:40;21.50;80.80
43949;DHT22;29429;51.074;13.764;2022-08-21T16:46:11;21.40;80.40
43949;DHT22;29429;51.074;13.764;2022-08-21T16:48:41;21.30;81.20
43949;DHT22;29429;51.074;13.764;2022-08-21T16:51:14;21.20;82.00
43949;DHT22;29429;51.074;13.764;2022-08-21T16:53:42;21.10;82.80
43949;DHT22;29429;51.074;13.764;2022-08-21T16:56:11;21.10;82.80
43949;DHT22;29429;51.074;13.764;2022-08-21T16:58:43;21.00;83.60
43949;DHT22;29429;51.074;13.764;2022-08-21T17:01:16;20.90;83.70
43949;DHT22;29429;51.074;13.764;2022-08-21T17:03:47;20.90;83.70
43949;DHT22;29429;51.074;13.764;2022-08-21T17:06:18;20.90;84.30
43949;DHT22;29429;51.074;13.764;2022-08-21T17:08:46;20.80;84.60
43949;DHT22;29429;51.074;13.764;2022-08-21T17:11:28;20.80;84.80
43949;DHT22;29429;51.074;13.764;2022-08-21T17:14:15;20.70;85.20
43949;DHT22;29429;51.074;13.764;2022-08-21T17:16:50;20.70;84.80
43949;DHT22;29429;51.074;13.764;2022-08-21T17:19:20;20.70;85.00